createdAt,value
2019-05-30T00:00:29.922Z,3.53
2019-05-30T00:03:02.330Z,3.90
2019-05-30T00:05:33.174Z,3.80
2019-05-30T00:08:04.410Z,3.87
2019-05-30T00:10:35.178Z,4.63
2019-05-30T00:13:05.891Z,4.07
2019-05-30T00:15:38.574Z,3.80
2019-05-30T00:18:09.254Z,3.90
2019-05-30T00:20:39.856Z,3.73
2019-05-30T00:23:13.365Z,3.87
2019-05-30T00:25:44.111Z,5.50
2019-05-30T00:28:15.815Z,5.77
2019-05-30T00:30:47.576Z,9.23
2019-05-30T00:33:19.294Z,8.30
2019-05-30T00:35:59.846Z,4.47
2019-05-30T00:38:36.053Z,4.40
2019-05-30T00:41:06.709Z,4.40
2019-05-30T00:43:37.386Z,4.10
2019-05-30T00:46:09.077Z,4.90
2019-05-30T00:48:39.764Z,5.27
2019-05-30T00:51:10.442Z,4.47
2019-05-30T00:53:41.042Z,3.90
2019-05-30T00:56:12.831Z,4.00
2019-05-30T00:58:43.435Z,3.70
2019-05-30T01:01:14.117Z,3.80
2019-05-30T01:03:44.762Z,4.67
2019-05-30T01:06:16.481Z,3.83
2019-05-30T01:08:47.235Z,4.20
2019-05-30T01:11:18.042Z,3.87
2019-05-30T01:13:48.801Z,3.70
2019-05-30T01:16:19.501Z,3.90
2019-05-30T01:18:50.158Z,3.80
2019-05-30T01:21:20.852Z,4.03
2019-05-30T01:23:51.442Z,4.57
2019-05-30T01:26:22.049Z,4.60
2019-05-30T01:28:52.814Z,4.83
2019-05-30T01:31:23.613Z,4.90
2019-05-30T01:33:54.363Z,5.30
2019-05-30T01:36:25.132Z,5.27
2019-05-30T01:38:55.965Z,4.50
2019-05-30T01:41:26.879Z,4.67
2019-05-30T01:43:57.782Z,4.97
2019-05-30T01:46:28.527Z,4.80
2019-05-30T01:49:00.229Z,4.30
2019-05-30T01:51:31.123Z,4.37
2019-05-30T01:54:02.572Z,4.73
2019-05-30T01:56:33.396Z,4.07
2019-05-30T01:59:04.779Z,4.80
2019-05-30T02:01:35.823Z,4.33
2019-05-30T02:04:07.340Z,4.03
2019-05-30T02:06:38.372Z,4.67
2019-05-30T02:09:10.255Z,4.37
2019-05-30T02:11:41.531Z,3.93
2019-05-30T02:14:12.260Z,4.57
2019-05-30T02:16:43.093Z,4.17
2019-05-30T02:19:13.843Z,4.20
2019-05-30T02:21:44.645Z,4.73
2019-05-30T02:24:15.577Z,5.03
2019-05-30T02:26:46.421Z,4.93
2019-05-30T02:29:17.227Z,4.57
2019-05-30T02:31:47.986Z,4.30
2019-05-30T02:34:18.768Z,4.83
2019-05-30T02:36:50.527Z,4.00
2019-05-30T02:39:21.287Z,4.10
2019-05-30T02:41:52.081Z,4.10
2019-05-30T02:44:22.864Z,4.33
2019-05-30T02:46:55.298Z,4.40
2019-05-30T02:49:26.424Z,4.37
2019-05-30T02:51:57.744Z,4.17
2019-05-30T02:54:28.538Z,4.50
2019-05-30T02:56:59.323Z,4.37
2019-05-30T02:59:31.063Z,4.10
2019-05-30T03:02:05.303Z,4.07
2019-05-30T03:04:35.339Z,4.70
2019-05-30T03:07:08.336Z,4.37
2019-05-30T03:09:38.878Z,4.10
2019-05-30T03:12:11.459Z,3.97
2019-05-30T03:14:43.348Z,4.10
2019-05-30T03:17:14.818Z,4.10
2019-05-30T03:19:45.562Z,4.40
2019-05-30T03:22:16.391Z,4.33
2019-05-30T03:24:47.164Z,3.97
2019-05-30T03:27:18.010Z,4.30
2019-05-30T03:29:48.780Z,4.30
2019-05-30T03:34:57.873Z,4.70
2019-05-30T03:37:30.491Z,4.67
2019-05-30T03:40:08.057Z,4.97
2019-05-30T03:42:38.746Z,4.40
2019-05-30T03:45:20.053Z,4.67
2019-05-30T03:47:53.172Z,4.70
2019-05-30T03:50:25.748Z,4.80
2019-05-30T03:52:56.763Z,5.00
2019-05-30T03:55:27.679Z,5.00
2019-05-30T03:58:14.443Z,5.40
2019-05-30T04:00:53.424Z,5.10
2019-05-30T04:03:56.691Z,4.80
2019-05-30T04:06:30.977Z,4.80
2019-05-30T04:09:09.685Z,4.80
2019-05-30T04:11:53.901Z,5.07
2019-05-30T04:14:26.989Z,4.77
2019-05-30T04:16:57.657Z,4.80
2019-05-30T04:19:28.366Z,4.93
2019-05-30T04:22:00.107Z,4.53
2019-05-30T04:24:30.780Z,5.10
2019-05-30T04:27:01.371Z,4.70
2019-05-30T04:29:33.138Z,4.90
2019-05-30T04:32:05.956Z,4.77
2019-05-30T04:34:36.566Z,4.73
2019-05-30T04:37:08.245Z,4.80
2019-05-30T04:39:39.092Z,4.47
2019-05-30T04:42:11.191Z,4.63
2019-05-30T04:44:41.967Z,4.20
2019-05-30T04:47:14.199Z,4.47
2019-05-30T04:49:45.886Z,4.20
2019-05-30T04:52:21.081Z,4.87
2019-05-30T04:54:48.785Z,4.50
2019-05-30T04:57:25.182Z,5.00
2019-05-30T04:59:56.178Z,4.33
2019-05-30T05:02:26.794Z,4.10
2019-05-30T05:04:57.478Z,4.00
2019-05-30T05:07:28.184Z,4.00
2019-05-30T05:09:58.889Z,4.10
2019-05-30T05:12:29.559Z,3.93
2019-05-30T05:15:01.260Z,3.83
2019-05-30T05:17:32.102Z,3.67
2019-05-30T05:20:04.248Z,3.40
2019-05-30T05:22:38.128Z,3.60
2019-05-30T05:25:09.165Z,3.50
2019-05-30T05:27:39.757Z,3.60
2019-05-30T05:30:13.881Z,3.40
2019-05-30T05:32:44.687Z,3.60
2019-05-30T05:35:16.706Z,3.70
2019-05-30T05:37:47.422Z,3.40
2019-05-30T05:40:18.505Z,3.20
2019-05-30T05:42:49.191Z,3.80
2019-05-30T05:45:22.658Z,3.77
2019-05-30T05:47:54.593Z,3.93
2019-05-30T05:50:26.387Z,3.30
2019-05-30T05:52:59.640Z,4.33
2019-05-30T05:55:30.514Z,3.43
2019-05-30T05:58:04.241Z,3.67
2019-05-30T06:00:37.668Z,3.70
2019-05-30T06:03:08.469Z,3.63
2019-05-30T06:05:52.580Z,3.43
2019-05-30T06:08:17.346Z,3.57
2019-05-30T06:10:50.293Z,3.63
2019-05-30T06:13:24.867Z,3.60
2019-05-30T06:15:55.540Z,3.90
2019-05-30T06:18:26.389Z,3.50
2019-05-30T06:20:57.179Z,3.50
2019-05-30T06:23:28.784Z,3.37
2019-05-30T06:25:59.498Z,3.57
2019-05-30T06:28:30.383Z,3.57
2019-05-30T06:31:02.107Z,3.70
2019-05-30T06:33:32.777Z,4.03
2019-05-30T06:36:09.262Z,4.37
2019-05-30T06:38:39.990Z,3.73
2019-05-30T06:41:10.699Z,4.00
2019-05-30T06:43:43.377Z,3.90
2019-05-30T06:46:16.109Z,3.80
2019-05-30T06:48:46.720Z,4.37
2019-05-30T06:51:17.387Z,4.40
2019-05-30T06:53:50.106Z,4.30
2019-05-30T06:56:23.282Z,4.27
2019-05-30T06:58:56.001Z,4.10
2019-05-30T07:01:27.890Z,4.33
2019-05-30T07:03:58.831Z,4.50
2019-05-30T07:06:34.359Z,4.13
2019-05-30T07:09:08.271Z,4.77
2019-05-30T07:11:43.077Z,3.97
2019-05-30T07:14:13.764Z,4.60
2019-05-30T07:16:46.448Z,4.67
2019-05-30T07:19:17.044Z,4.33
2019-05-30T07:21:47.753Z,4.60
2019-05-30T07:24:19.430Z,4.90
2019-05-30T07:26:50.063Z,5.20
2019-05-30T07:29:20.807Z,5.07
2019-05-30T07:31:51.421Z,5.47
2019-05-30T07:34:22.060Z,5.30
2019-05-30T07:36:53.755Z,5.47
2019-05-30T07:39:35.247Z,5.13
2019-05-30T07:42:06.508Z,5.23
2019-05-30T07:44:37.576Z,5.50
2019-05-30T07:47:08.181Z,5.30
2019-05-30T07:49:39.882Z,5.70
2019-05-30T07:52:11.634Z,5.43
2019-05-30T07:54:42.372Z,5.37
2019-05-30T07:57:14.029Z,5.33
2019-05-30T07:59:44.647Z,5.13
2019-05-30T08:02:15.269Z,5.27
2019-05-30T08:04:47.006Z,5.50
2019-05-30T08:07:17.880Z,4.70
2019-05-30T08:09:48.618Z,4.37
2019-05-30T08:12:19.306Z,4.80
2019-05-30T08:14:52.007Z,4.40
2019-05-30T08:17:22.830Z,4.27
2019-05-30T08:19:53.596Z,4.03
2019-05-30T08:22:24.344Z,4.03
2019-05-30T08:24:55.133Z,4.67
2019-05-30T08:27:25.859Z,4.63
2019-05-30T08:29:56.645Z,4.33
2019-05-30T08:32:28.362Z,4.17
2019-05-30T08:34:59.189Z,4.57
2019-05-30T08:37:32.009Z,4.70
2019-05-30T08:40:02.492Z,5.23
2019-05-30T08:42:33.277Z,4.87
2019-05-30T08:45:10.149Z,4.30
2019-05-30T08:47:42.917Z,4.30
2019-05-30T08:50:14.661Z,4.53
2019-05-30T08:52:45.375Z,5.10
2019-05-30T08:55:18.094Z,4.33
2019-05-30T08:57:49.267Z,3.80
2019-05-30T09:00:20.798Z,4.40
2019-05-30T09:02:51.507Z,3.93
2019-05-30T09:05:24.188Z,3.80
2019-05-30T09:07:54.946Z,3.97
2019-05-30T09:10:27.671Z,4.03
2019-05-30T09:12:59.396Z,3.47
2019-05-30T09:15:31.307Z,4.07
2019-05-30T09:18:07.375Z,3.90
2019-05-30T09:20:39.810Z,3.20
2019-05-30T09:23:11.919Z,3.80
2019-05-30T09:25:46.470Z,3.97
2019-05-30T09:28:15.965Z,3.70
2019-05-30T09:30:48.507Z,3.80
2019-05-30T09:33:19.276Z,3.57
2019-05-30T09:35:49.959Z,3.30
2019-05-30T09:38:21.552Z,3.20
2019-05-30T09:40:53.282Z,3.43
2019-05-30T09:43:23.978Z,3.70
2019-05-30T09:45:55.819Z,3.43
2019-05-30T09:48:26.532Z,4.40
2019-05-30T09:50:57.250Z,4.23
2019-05-30T09:53:27.951Z,4.40
2019-05-30T09:56:00.685Z,4.00
2019-05-30T09:58:31.394Z,3.90
2019-05-30T10:01:03.083Z,4.43
2019-05-30T10:03:33.832Z,3.93
2019-05-30T10:06:05.166Z,4.00
2019-05-30T10:08:37.453Z,3.47
2019-05-30T10:11:08.222Z,4.13
2019-05-30T10:13:39.960Z,3.97
2019-05-30T10:16:10.777Z,4.23
2019-05-30T10:18:41.575Z,4.00
2019-05-30T10:21:12.269Z,3.87
2019-05-30T10:23:43.304Z,4.00
2019-05-30T10:26:14.141Z,3.93
2019-05-30T10:28:46.093Z,4.03
2019-05-30T10:31:17.422Z,4.40
2019-05-30T10:33:49.378Z,4.20
2019-05-30T10:36:20.599Z,4.40
2019-05-30T10:38:52.193Z,4.20
2019-05-30T10:41:24.137Z,4.37
2019-05-30T10:43:55.824Z,4.07
2019-05-30T10:46:26.662Z,4.67
2019-05-30T10:48:57.840Z,4.43
2019-05-30T10:51:28.747Z,4.40
2019-05-30T10:53:59.588Z,4.70
2019-05-30T10:56:30.619Z,4.50
2019-05-30T10:59:02.238Z,4.80
2019-05-30T11:01:38.599Z,3.90
2019-05-30T11:04:11.304Z,4.90
2019-05-30T11:07:12.103Z,3.97
2019-05-30T11:09:48.399Z,4.53
2019-05-30T11:12:19.327Z,4.83
2019-05-30T11:14:51.414Z,4.90
2019-05-30T11:17:22.212Z,4.80
2019-05-30T11:19:54.063Z,4.60
2019-05-30T11:22:29.239Z,4.77
2019-05-30T11:25:01.919Z,5.23
2019-05-30T11:27:33.132Z,5.00
2019-05-30T11:30:05.885Z,6.27
2019-05-30T11:32:36.556Z,5.77
2019-05-30T11:35:10.412Z,4.77
2019-05-30T11:37:41.124Z,5.07
2019-05-30T11:40:12.057Z,5.17
2019-05-30T11:42:49.306Z,5.30
2019-05-30T11:45:20.136Z,4.63
2019-05-30T11:47:52.087Z,5.00
2019-05-30T11:50:30.213Z,4.83
2019-05-30T11:53:01.419Z,4.90
2019-05-30T11:55:34.811Z,4.47
2019-05-30T11:58:05.606Z,4.80
2019-05-30T12:00:36.293Z,4.80
2019-05-30T12:03:10.717Z,4.87
2019-05-30T12:05:44.154Z,5.00
2019-05-30T12:08:15.003Z,4.90
2019-05-30T12:10:45.777Z,4.33
2019-05-30T12:13:16.493Z,4.87
2019-05-30T12:15:47.273Z,5.50
2019-05-30T12:18:19.108Z,5.03
2019-05-30T12:20:49.823Z,5.27
2019-05-30T12:23:21.075Z,5.97
2019-05-30T12:25:52.043Z,5.17
2019-05-30T12:28:22.908Z,5.13
2019-05-30T12:30:59.064Z,4.90
2019-05-30T12:33:26.207Z,4.80
2019-05-30T12:35:57.007Z,6.17
2019-05-30T12:38:27.841Z,5.43
2019-05-30T12:40:58.782Z,6.57
2019-05-30T12:43:29.974Z,5.53
2019-05-30T12:46:01.894Z,5.33
2019-05-30T12:48:33.930Z,5.70
2019-05-30T12:51:05.569Z,5.60
2019-05-30T12:53:37.559Z,6.00
2019-05-30T12:56:09.405Z,6.07
2019-05-30T12:58:40.841Z,6.83
2019-05-30T13:01:11.704Z,6.33
2019-05-30T13:03:42.434Z,6.47
2019-05-30T13:06:17.909Z,5.77
2019-05-30T13:08:48.720Z,6.27
2019-05-30T13:11:20.119Z,6.23
2019-05-30T13:13:50.872Z,6.07
2019-05-30T13:16:22.454Z,6.70
2019-05-30T13:18:54.174Z,6.43
2019-05-30T13:21:24.969Z,7.13
2019-05-30T13:23:55.714Z,7.23
2019-05-30T13:26:26.525Z,7.47
2019-05-30T13:28:57.983Z,6.10
2019-05-30T13:31:28.854Z,7.03
2019-05-30T13:34:01.118Z,7.30
2019-05-30T13:36:32.040Z,7.00
2019-05-30T13:39:07.511Z,7.47
2019-05-30T13:41:38.691Z,7.20
2019-05-30T13:44:10.005Z,6.53
2019-05-30T13:46:46.928Z,7.17
2019-05-30T13:49:22.478Z,7.40
2019-05-30T13:51:53.947Z,7.50
2019-05-30T13:54:25.896Z,7.37
2019-05-30T13:56:56.642Z,6.97
2019-05-30T13:59:27.328Z,7.90
2019-05-30T14:01:59.853Z,7.30
2019-05-30T14:04:32.575Z,7.40
2019-05-30T14:07:04.202Z,6.93
2019-05-30T14:09:36.172Z,7.17
2019-05-30T14:12:08.725Z,6.73
2019-05-30T14:14:39.880Z,6.77
2019-05-30T14:17:14.990Z,7.10
2019-05-30T14:19:46.372Z,7.33
2019-05-30T14:22:17.658Z,7.53
2019-05-30T14:24:48.370Z,7.10
2019-05-30T14:27:22.168Z,7.67
2019-05-30T14:29:55.002Z,6.30
2019-05-30T14:32:25.671Z,6.97
2019-05-30T14:34:56.455Z,6.60
2019-05-30T14:37:27.064Z,7.03
2019-05-30T14:39:57.895Z,7.10
2019-05-30T14:42:28.917Z,7.03
2019-05-30T14:44:59.820Z,6.43
2019-05-30T14:47:30.597Z,6.27
2019-05-30T14:50:01.483Z,6.10
2019-05-30T14:52:32.282Z,5.87
2019-05-30T14:55:03.243Z,7.20
2019-05-30T14:57:33.991Z,6.60
2019-05-30T15:00:07.376Z,6.47
2019-05-30T15:02:38.162Z,6.30
2019-05-30T15:05:09.594Z,6.10
2019-05-30T15:07:42.059Z,5.90
2019-05-30T15:10:17.010Z,5.97
2019-05-30T15:12:48.124Z,6.17
2019-05-30T15:15:30.108Z,6.93
2019-05-30T15:18:01.819Z,6.70
2019-05-30T15:20:32.497Z,6.87
2019-05-30T15:23:11.680Z,6.77
2019-05-30T15:25:43.893Z,7.03
2019-05-30T15:28:14.564Z,6.47
2019-05-30T15:30:45.262Z,6.27
2019-05-30T15:33:16.635Z,6.77
2019-05-30T15:35:47.421Z,6.33
2019-05-30T15:38:21.914Z,7.30
2019-05-30T15:40:52.598Z,6.83
2019-05-30T15:43:23.402Z,6.27
2019-05-30T15:45:54.045Z,6.40
2019-05-30T15:48:24.687Z,5.63
2019-05-30T15:50:55.433Z,6.07
2019-05-30T15:53:26.110Z,6.17
2019-05-30T15:55:56.889Z,5.87
2019-05-30T15:58:28.649Z,6.43
2019-05-30T16:01:00.546Z,6.10
2019-05-30T16:03:31.312Z,5.60
2019-05-30T16:06:02.178Z,5.87
2019-05-30T16:08:32.866Z,5.97
2019-05-30T16:11:05.672Z,5.73
2019-05-30T16:13:42.854Z,6.00
2019-05-30T16:16:13.630Z,5.50
2019-05-30T16:18:45.264Z,5.80
2019-05-30T16:21:17.150Z,6.10
2019-05-30T16:23:49.452Z,6.37
2019-05-30T16:26:20.143Z,6.20
2019-05-30T16:28:51.959Z,5.57
2019-05-30T16:31:26.057Z,5.27
2019-05-30T16:33:57.684Z,5.23
2019-05-30T16:36:29.503Z,4.97
2019-05-30T16:39:00.128Z,5.23
2019-05-30T16:41:31.355Z,5.30
2019-05-30T16:44:03.162Z,5.73
2019-05-30T16:46:33.990Z,5.20
2019-05-30T16:49:05.703Z,4.90
2019-05-30T16:51:36.433Z,5.00
2019-05-30T16:54:07.114Z,5.13
2019-05-30T16:56:37.937Z,4.70
2019-05-30T16:59:08.766Z,5.43
2019-05-30T17:01:39.534Z,5.03
2019-05-30T17:04:10.235Z,5.00
2019-05-30T17:06:40.961Z,4.93
2019-05-30T17:09:11.780Z,5.30
2019-05-30T17:11:42.398Z,5.53
2019-05-30T17:14:13.400Z,5.77
2019-05-30T17:16:44.272Z,5.47
2019-05-30T17:19:16.405Z,5.60
2019-05-30T17:21:47.388Z,4.70
2019-05-30T17:24:25.217Z,4.53
2019-05-30T17:26:56.285Z,4.50
2019-05-30T17:29:30.593Z,3.90
2019-05-30T17:32:01.785Z,4.30
2019-05-30T17:34:36.978Z,3.63
2019-05-30T17:37:08.719Z,3.80
2019-05-30T17:39:42.310Z,3.83
2019-05-30T17:42:15.897Z,4.10
2019-05-30T17:44:47.984Z,4.00
2019-05-30T17:47:21.298Z,3.90
2019-05-30T17:49:52.818Z,4.10
2019-05-30T17:52:25.790Z,4.23
2019-05-30T17:54:57.489Z,3.90
2019-05-30T17:57:30.228Z,4.47
2019-05-30T18:00:04.239Z,4.33
2019-05-30T18:02:38.347Z,4.50
2019-05-30T18:05:09.804Z,4.53
2019-05-30T18:07:40.969Z,4.33
2019-05-30T18:10:15.033Z,4.37
2019-05-30T18:12:47.137Z,4.57
2019-05-30T18:15:18.173Z,4.40
2019-05-30T18:17:49.442Z,4.70
2019-05-30T18:20:23.141Z,4.30
2019-05-30T18:22:54.094Z,4.57
2019-05-30T18:25:25.623Z,4.10
2019-05-30T18:27:57.518Z,4.37
2019-05-30T18:30:40.323Z,4.17
2019-05-30T18:33:12.639Z,4.03
2019-05-30T18:35:44.270Z,4.40
2019-05-30T18:38:17.059Z,4.47
2019-05-30T18:40:48.695Z,3.97
2019-05-30T18:43:20.592Z,3.57
2019-05-30T18:45:52.122Z,4.00
2019-05-30T18:48:23.327Z,3.90
2019-05-30T18:50:54.444Z,4.20
2019-05-30T18:53:28.244Z,4.07
2019-05-30T18:56:03.897Z,4.00
2019-05-30T18:58:37.545Z,4.20
2019-05-30T19:04:22.752Z,3.90
2019-05-30T19:06:53.798Z,3.87
2019-05-30T19:09:25.424Z,3.67
2019-05-30T19:11:57.163Z,4.07
2019-05-30T19:14:32.096Z,3.93
2019-05-30T19:17:03.433Z,3.87
2019-05-30T19:19:35.868Z,4.23
2019-05-30T19:22:07.322Z,3.87
2019-05-30T19:24:40.860Z,3.30
2019-05-30T19:27:14.266Z,3.40
2019-05-30T19:29:45.581Z,3.57
2019-05-30T19:32:16.793Z,3.13
2019-05-30T19:34:49.531Z,3.00
2019-05-30T19:37:22.144Z,3.33
2019-05-30T19:39:53.250Z,3.30
2019-05-30T19:42:25.201Z,3.23
2019-05-30T19:45:01.218Z,2.77
2019-05-30T19:47:34.634Z,2.83
2019-05-30T19:50:07.660Z,2.87
2019-05-30T19:52:39.638Z,2.87
2019-05-30T19:55:11.551Z,2.97
2019-05-30T19:57:42.757Z,2.97
2019-05-30T20:00:14.986Z,3.00
2019-05-30T20:02:47.308Z,3.10
2019-05-30T20:05:22.120Z,3.00
2019-05-30T20:07:54.038Z,2.87
2019-05-30T20:10:27.591Z,3.13
2019-05-30T20:12:58.717Z,2.73
2019-05-30T20:15:31.167Z,2.70
2019-05-30T20:18:02.678Z,2.60
2019-05-30T20:20:52.580Z,3.23
2019-05-30T20:23:06.944Z,2.87
2019-05-30T20:25:41.884Z,2.90
2019-05-30T20:28:12.049Z,3.10
2019-05-30T20:30:45.452Z,3.10
2019-05-30T20:33:19.794Z,3.10
2019-05-30T20:35:50.897Z,3.10
2019-05-30T20:38:22.159Z,3.30
2019-05-30T20:40:54.971Z,3.00
2019-05-30T20:43:26.988Z,2.97
2019-05-30T20:45:57.779Z,3.30
2019-05-30T20:48:31.130Z,3.27
2019-05-30T20:51:02.935Z,3.20
2019-05-30T20:53:35.225Z,3.00
2019-05-30T20:56:10.015Z,3.40
2019-05-30T20:58:41.815Z,2.77
2019-05-30T21:01:13.813Z,3.17
2019-05-30T21:03:45.839Z,2.90
2019-05-30T21:06:18.373Z,3.10
2019-05-30T21:08:52.091Z,3.20
2019-05-30T21:11:24.970Z,3.50
2019-05-30T21:13:55.739Z,3.30
2019-05-30T21:16:30.601Z,3.67
2019-05-30T21:19:07.663Z,3.60
2019-05-30T21:21:42.535Z,4.00
2019-05-30T21:24:21.389Z,3.57
2019-05-30T21:26:54.417Z,3.60
2019-05-30T21:29:31.539Z,3.90
2019-05-30T21:32:05.966Z,3.63
2019-05-30T21:34:37.611Z,3.47
2019-05-30T21:37:09.491Z,3.30
2019-05-30T21:39:40.242Z,3.30
2019-05-30T21:42:12.026Z,3.83
2019-05-30T21:44:42.877Z,3.50
2019-05-30T21:47:13.793Z,3.37
2019-05-30T21:49:44.926Z,3.00
2019-05-30T21:52:16.012Z,3.10
2019-05-30T21:54:50.098Z,3.00
2019-05-30T21:57:22.103Z,3.33
2019-05-30T21:59:53.015Z,3.63
2019-05-30T22:02:29.736Z,3.60
2019-05-30T22:05:02.743Z,3.40
2019-05-30T22:07:34.980Z,3.30
2019-05-30T22:10:05.956Z,3.30
2019-05-30T22:12:36.675Z,3.60
2019-05-30T22:15:11.185Z,3.00
2019-05-30T22:17:41.889Z,3.20
2019-05-30T22:20:16.444Z,2.90
2019-05-30T22:22:48.120Z,3.30
2019-05-30T22:25:18.988Z,3.03
2019-05-30T22:27:50.540Z,3.07
2019-05-30T22:30:22.337Z,2.70
2019-05-30T22:32:52.980Z,2.50
2019-05-30T22:35:23.747Z,2.93
2019-05-30T22:37:56.437Z,2.77
2019-05-30T22:40:27.160Z,3.00
2019-05-30T22:42:57.927Z,2.67
2019-05-30T22:45:30.658Z,2.67
2019-05-30T22:48:01.345Z,2.53
2019-05-30T22:50:32.126Z,2.30
2019-05-30T22:53:03.855Z,2.40
2019-05-30T22:55:34.599Z,2.50
2019-05-30T22:58:05.255Z,2.40
2019-05-30T23:00:40.989Z,2.60
2019-05-30T23:03:15.786Z,2.57
2019-05-30T23:05:47.263Z,2.30
2019-05-30T23:08:19.204Z,2.70
2019-05-30T23:10:50.041Z,2.70
2019-05-30T23:13:23.030Z,2.60
2019-05-30T23:15:59.039Z,2.63
2019-05-30T23:18:29.651Z,3.27
2019-05-30T23:21:00.453Z,3.07
2019-05-30T23:23:31.283Z,3.30
2019-05-30T23:26:03.996Z,2.90
2019-05-30T23:28:41.569Z,3.07
2019-05-30T23:31:14.424Z,3.03
2019-05-30T23:33:52.302Z,2.93
2019-05-30T23:36:24.644Z,2.77
2019-05-30T23:38:55.382Z,2.70
2019-05-30T23:41:37.380Z,3.07
2019-05-30T23:44:11.903Z,2.80
2019-05-30T23:46:55.450Z,2.60
2019-05-30T23:49:29.252Z,2.73
2019-05-30T23:52:00.332Z,2.90
2019-05-30T23:54:38.091Z,3.30
2019-05-30T23:57:08.820Z,3.10
2019-05-30T23:59:39.536Z,3.00
